Time;durP1;ratioP1;P1;durP2;ratioP2;P2;SDS_P1;SDS_P2;PMS_P1;PMS_P2;Temp;Humidity;BMP_temperature;BMP_pressure;BME280_temperature;BME280_humidity;BME280_pressure;Samples;Min_cycle;Max_cycle;Signal;HPM_P1;HPM_P2
2022/01/25 00:09:09;;;;;;;;;;;6.50;99.90;;;;;;2081095;28;19909;-70
2022/01/25 00:10:38;;;;;;;;;;;6.50;99.90;;;;;;2080587;28;19917;-70
2022/01/25 00:25:08;;;;;;;;;;;6.40;99.90;;;;;;2075054;28;19917;-70
2022/01/25 00:26:25;;;;;;;;;;;6.40;99.90;;;;;;2075061;28;20366;-70
2022/01/25 00:27:40;;;;;;;;;;;6.30;99.90;;;;;;2080213;28;19912;-70
2022/01/25 00:28:47;;;;;;;;;;;6.30;99.90;;;;;;2080396;28;19913;-70
2022/01/25 00:31:10;;;;;;;;;;;6.30;99.90;;;;;;2080740;28;19943;-70
2022/01/25 00:32:11;;;;;;;;;;;6.30;99.90;;;;;;2072824;28;20008;-70
2022/01/25 00:33:11;;;;;;;;;;;6.30;99.90;;;;;;2080683;28;20032;-70
2022/01/25 00:34:12;;;;;;;;;;;6.20;99.90;;;;;;2080655;28;20036;-70
2022/01/25 00:35:12;;;;;;;;;;;6.30;99.90;;;;;;2080435;28;19909;-70
2022/01/25 00:36:14;;;;;;;;;;;6.30;99.90;;;;;;2080230;28;19920;-70
2022/01/25 00:37:14;;;;;;;;;;;6.30;99.90;;;;;;2080134;28;19917;-70
2022/01/25 00:38:15;;;;;;;;;;;6.30;99.90;;;;;;2080705;28;19916;-70
2022/01/25 00:39:15;;;;;;;;;;;6.30;99.90;;;;;;2080307;28;19992;-70
2022/01/25 00:40:16;;;;;;;;;;;6.30;99.90;;;;;;2080915;28;19917;-70
2022/01/25 00:41:18;;;;;;;;;;;6.30;99.90;;;;;;2080272;28;19955;-70
2022/01/25 00:42:18;;;;;;;;;;;6.30;99.90;;;;;;2080705;28;19920;-70
2022/01/25 00:43:23;;;;;;;;;;;6.30;99.90;;;;;;2080471;28;19921;-70
2022/01/25 00:44:25;;;;;;;;;;;6.30;99.90;;;;;;2080226;28;20056;-70
2022/01/25 00:45:28;;;;;;;;;;;6.40;99.90;;;;;;2071824;28;19937;-70
2022/01/25 00:46:29;;;;;;;;;;;6.40;99.90;;;;;;2079817;28;20007;-70
2022/01/25 00:47:29;;;;;;;;;;;6.40;99.90;;;;;;2079647;28;19913;-70
2022/01/25 00:48:41;;;;;;;;;;;6.40;99.90;;;;;;2080207;28;19940;-70
2022/01/25 00:49:43;;;;;;;;;;;6.40;99.90;;;;;;2079890;28;19913;-70
2022/01/25 00:50:44;;;;;;;;;;;6.40;99.90;;;;;;2080466;28;19963;-70
2022/01/25 00:54:03;;;;;;;;;;;6.40;99.90;;;;;;2080431;28;20289;-70
2022/01/25 00:55:04;;;;;;;;;;;6.40;99.90;;;;;;2074839;28;19956;-70
2022/01/25 00:56:04;;;;;;;;;;;6.40;99.90;;;;;;2079843;28;19924;-70
2022/01/25 00:57:06;;;;;;;;;;;6.40;99.90;;;;;;2080053;28;20043;-70
2022/01/25 00:58:07;;;;;;;;;;;6.40;99.90;;;;;;2080024;28;19913;-70
2022/01/25 00:59:09;;;;;;;;;;;6.50;99.90;;;;;;2080403;28;19909;-70
2022/01/25 01:00:11;;;;;;;;;;;6.50;99.90;;;;;;2080192;28;19909;-70
2022/01/25 01:01:11;;;;;;;;;;;6.50;99.90;;;;;;2078564;28;19917;-70
2022/01/25 01:02:13;;;;;;;;;;;6.40;99.90;;;;;;2076710;28;19978;-70
2022/01/25 01:03:13;;;;;;;;;;;6.40;99.90;;;;;;2080473;28;19909;-70
2022/01/25 01:04:14;;;;;;;;;;;6.40;99.90;;;;;;2080431;28;20008;-70
2022/01/25 01:05:15;;;;;;;;;;;6.50;99.90;;;;;;2076399;28;19952;-70
2022/01/25 01:06:16;;;;;;;;;;;6.40;99.90;;;;;;2080412;28;20576;-70
2022/01/25 01:07:17;;;;;;;;;;;6.50;99.90;;;;;;2077058;28;19921;-70
2022/01/25 01:08:17;;;;;;;;;;;6.40;99.90;;;;;;2073074;28;19914;-70
2022/01/25 01:09:19;;;;;;;;;;;6.40;99.90;;;;;;2080039;28;19936;-70
2022/01/25 01:10:22;;;;;;;;;;;6.50;99.90;;;;;;2080316;28;19920;-70
2022/01/25 01:11:39;;;;;;;;;;;6.40;99.90;;;;;;2080297;28;20403;-70
2022/01/25 01:13:16;;;;;;;;;;;6.50;99.90;;;;;;2071981;28;20362;-70
2022/01/25 01:14:16;;;;;;;;;;;6.50;99.90;;;;;;2079892;28;19996;-70
2022/01/25 01:15:27;;;;;;;;;;;6.50;99.90;;;;;;2076901;28;20255;-70
2022/01/25 01:30:18;;;;;;;;;;;6.30;99.90;;;;;;2079846;28;19917;-70
2022/01/25 01:31:13;;;;;;;;;;;6.30;99.90;;;;;;2072283;28;19920;-70
2022/01/25 01:36:34;;;;;;;;;;;6.30;99.90;;;;;;2080508;28;19971;-70
2022/01/25 01:37:48;;;;;;;;;;;6.30;99.90;;;;;;2079066;28;19977;-70
2022/01/25 01:40:20;;;;;;;;;;;6.30;99.90;;;;;;2078694;28;19909;-70
2022/01/25 01:41:45;;;;;;;;;;;6.30;99.90;;;;;;2080856;28;19913;-70
2022/01/25 01:43:03;;;;;;;;;;;6.40;99.90;;;;;;2082778;28;19913;-70
2022/01/25 01:44:05;;;;;;;;;;;6.40;99.90;;;;;;2075418;28;19975;-70
2022/01/25 01:45:23;;;;;;;;;;;6.40;99.90;;;;;;2080407;28;19909;-70
2022/01/25 01:46:39;;;;;;;;;;;6.40;99.90;;;;;;2072295;28;19917;-70
2022/01/25 01:47:47;;;;;;;;;;;6.40;99.90;;;;;;2077137;28;19936;-70
2022/01/25 01:49:51;;;;;;;;;;;6.40;99.90;;;;;;2073302;28;19919;-70
2022/01/25 01:50:52;;;;;;;;;;;6.40;99.90;;;;;;2076931;28;19913;-70
2022/01/25 01:51:52;;;;;;;;;;;6.40;99.90;;;;;;2080011;28;20261;-70
2022/01/25 01:52:53;;;;;;;;;;;6.40;99.90;;;;;;2080163;28;19909;-70
2022/01/25 01:53:54;;;;;;;;;;;6.40;99.90;;;;;;2080138;28;19913;-70
2022/01/25 01:54:55;;;;;;;;;;;6.40;99.90;;;;;;2080301;28;20346;-70
2022/01/25 01:55:55;;;;;;;;;;;6.40;99.90;;;;;;2080110;28;20348;-70
2022/01/25 01:56:56;;;;;;;;;;;6.40;99.90;;;;;;2079261;28;19909;-70
2022/01/25 01:57:56;;;;;;;;;;;6.40;99.90;;;;;;2080069;28;20458;-70
2022/01/25 01:58:58;;;;;;;;;;;6.40;99.90;;;;;;2080135;28;20265;-70
2022/01/25 01:59:58;;;;;;;;;;;6.40;99.90;;;;;;2078967;28;19921;-70
2022/01/25 02:00:59;;;;;;;;;;;6.40;99.90;;;;;;2080369;28;19913;-70
2022/01/25 02:02:00;;;;;;;;;;;6.40;99.90;;;;;;2079928;28;19919;-70
2022/01/25 02:03:01;;;;;;;;;;;6.40;99.90;;;;;;2079991;28;19909;-70
2022/01/25 02:04:03;;;;;;;;;;;6.40;99.90;;;;;;2080158;28;19959;-70
2022/01/25 02:05:03;;;;;;;;;;;6.40;99.90;;;;;;2080030;28;19909;-70
2022/01/25 02:06:04;;;;;;;;;;;6.40;99.90;;;;;;2080228;28;19921;-70
2022/01/25 02:07:04;;;;;;;;;;;6.40;99.90;;;;;;2077685;28;20177;-70
2022/01/25 02:08:05;;;;;;;;;;;6.40;99.90;;;;;;2073873;28;20285;-70
2022/01/25 02:09:06;;;;;;;;;;;6.40;99.90;;;;;;2081643;28;19936;-70
2022/01/25 02:10:07;;;;;;;;;;;6.40;99.90;;;;;;2081543;28;19944;-70
2022/01/25 02:11:08;;;;;;;;;;;6.40;99.90;;;;;;2079017;28;19963;-70
2022/01/25 02:12:08;;;;;;;;;;;6.40;99.90;;;;;;2081001;28;19975;-70
2022/01/25 02:13:09;;;;;;;;;;;6.40;99.90;;;;;;2078924;28;19946;-70
2022/01/25 02:14:13;;;;;;;;;;;6.40;99.90;;;;;;2073733;28;19921;-70
2022/01/25 02:15:13;;;;;;;;;;;6.40;99.90;;;;;;2079633;28;20434;-70
2022/01/25 02:17:05;;;;;;;;;;;6.40;99.90;;;;;;2077668;28;20380;-70
2022/01/25 02:17:59;;;;;;;;;;;6.40;99.90;;;;;;2064811;28;20389;-70
2022/01/25 02:22:59;;;;;;;;;;;6.30;99.90;;;;;;2081762;28;20265;-70
2022/01/25 02:24:00;;;;;;;;;;;6.30;99.90;;;;;;2081709;28;19916;-70
2022/01/25 02:25:00;;;;;;;;;;;6.30;99.90;;;;;;2081489;28;19909;-70
2022/01/25 02:26:02;;;;;;;;;;;6.30;99.90;;;;;;2081693;28;20392;-70
2022/01/25 02:27:03;;;;;;;;;;;6.30;99.90;;;;;;2079128;28;19910;-70
2022/01/25 02:28:04;;;;;;;;;;;6.30;99.90;;;;;;2078951;28;19928;-70
2022/01/25 02:29:04;;;;;;;;;;;6.30;99.90;;;;;;2081363;28;20008;-70
2022/01/25 02:30:11;;;;;;;;;;;6.20;99.90;;;;;;2081710;28;20055;-70
2022/01/25 02:31:13;;;;;;;;;;;6.20;99.90;;;;;;2077925;28;20376;-70
2022/01/25 02:32:14;;;;;;;;;;;6.20;99.90;;;;;;2088756;28;19916;-70
2022/01/25 02:33:14;;;;;;;;;;;6.30;99.90;;;;;;2088508;28;19916;-70
2022/01/25 02:34:15;;;;;;;;;;;6.30;99.90;;;;;;2081524;28;20006;-70
2022/01/25 02:35:15;;;;;;;;;;;6.20;99.90;;;;;;2081500;28;20326;-70
2022/01/25 02:36:22;;;;;;;;;;;6.20;99.90;;;;;;2080936;28;19980;-70
2022/01/25 02:37:23;;;;;;;;;;;6.20;99.90;;;;;;2078353;28;19917;-70
2022/01/25 02:38:27;;;;;;;;;;;6.20;99.90;;;;;;2073563;28;19996;-70
2022/01/25 02:39:28;;;;;;;;;;;6.30;99.90;;;;;;2077985;28;19952;-70
2022/01/25 02:40:28;;;;;;;;;;;6.20;99.90;;;;;;2081358;28;19971;-70
2022/01/25 02:41:29;;;;;;;;;;;6.30;99.90;;;;;;2080806;28;19913;-70
2022/01/25 02:42:29;;;;;;;;;;;6.20;99.90;;;;;;2081724;28;19910;-70
2022/01/25 02:43:30;;;;;;;;;;;6.30;99.90;;;;;;2081301;28;19952;-70
2022/01/25 02:44:30;;;;;;;;;;;6.20;99.90;;;;;;2080978;28;19959;-70
2022/01/25 02:45:34;;;;;;;;;;;6.30;99.90;;;;;;2081485;28;19916;-70
2022/01/25 02:48:54;;;;;;;;;;;6.20;99.90;;;;;;2081525;28;19913;-70
2022/01/25 02:49:55;;;;;;;;;;;6.20;99.90;;;;;;2081320;28;19909;-70
2022/01/25 02:51:01;;;;;;;;;;;6.20;99.90;;;;;;2081415;28;20376;-70
2022/01/25 02:52:03;;;;;;;;;;;6.20;99.90;;;;;;2081395;28;20605;-70
2022/01/25 02:53:03;;;;;;;;;;;6.20;99.90;;;;;;2081611;28;19915;-70
2022/01/25 02:54:07;;;;;;;;;;;6.20;99.90;;;;;;2080387;28;19924;-70
2022/01/25 02:55:07;;;;;;;;;;;6.20;99.90;;;;;;2077864;28;19956;-70
2022/01/25 02:56:08;;;;;;;;;;;6.20;99.90;;;;;;2081095;28;19910;-70
2022/01/25 02:57:08;;;;;;;;;;;6.20;99.90;;;;;;2081452;28;19963;-70
2022/01/25 02:58:09;;;;;;;;;;;6.20;99.90;;;;;;2081290;28;19918;-70
2022/01/25 02:59:10;;;;;;;;;;;6.20;99.90;;;;;;2080815;28;19962;-70
2022/01/25 03:00:11;;;;;;;;;;;6.20;99.90;;;;;;2080766;28;20012;-70
2022/01/25 03:01:12;;;;;;;;;;;6.20;99.90;;;;;;2080973;28;19917;-70
2022/01/25 03:02:12;;;;;;;;;;;6.20;99.90;;;;;;2081127;28;19921;-70
2022/01/25 03:03:13;;;;;;;;;;;6.20;99.90;;;;;;2081515;28;19944;-70
2022/01/25 03:04:14;;;;;;;;;;;6.30;99.90;;;;;;2081362;28;19913;-70
2022/01/25 03:05:15;;;;;;;;;;;6.30;99.90;;;;;;2080741;28;19921;-70
2022/01/25 03:06:16;;;;;;;;;;;6.30;99.90;;;;;;2081253;28;19944;-70
2022/01/25 03:07:17;;;;;;;;;;;6.30;99.90;;;;;;2073725;28;20340;-70
2022/01/25 03:08:17;;;;;;;;;;;6.30;99.90;;;;;;2081394;28;19909;-70
2022/01/25 03:09:18;;;;;;;;;;;6.30;99.90;;;;;;2081527;28;19913;-70
2022/01/25 03:10:18;;;;;;;;;;;6.30;99.90;;;;;;2081305;28;20004;-70
2022/01/25 03:11:21;;;;;;;;;;;6.30;99.90;;;;;;2082117;28;19909;-70
2022/01/25 03:12:32;;;;;;;;;;;6.30;99.90;;;;;;2082929;28;20354;-70
2022/01/25 03:13:46;;;;;;;;;;;6.30;99.90;;;;;;2083049;28;19915;-70
2022/01/25 03:15:10;;;;;;;;;;;6.30;99.90;;;;;;2082757;28;20523;-70
2022/01/25 03:16:18;;;;;;;;;;;6.30;99.90;;;;;;2082768;28;19917;-70
2022/01/25 03:17:25;;;;;;;;;;;6.30;99.90;;;;;;2082770;28;19928;-70
2022/01/25 03:18:39;;;;;;;;;;;6.30;99.90;;;;;;2082661;28;20369;-70
2022/01/25 03:19:47;;;;;;;;;;;6.20;99.90;;;;;;2082778;28;19917;-70
2022/01/25 03:20:51;;;;;;;;;;;6.30;99.90;;;;;;2082880;28;19927;-70
2022/01/25 03:21:52;;;;;;;;;;;6.30;99.90;;;;;;2082197;28;19917;-70
2022/01/25 03:23:54;;;;;;;;;;;6.20;99.90;;;;;;2082874;28;20357;-70
2022/01/25 03:24:55;;;;;;;;;;;6.20;99.90;;;;;;2082514;28;19962;-70
2022/01/25 03:25:55;;;;;;;;;;;6.20;99.90;;;;;;2082793;28;19925;-70
2022/01/25 03:26:56;;;;;;;;;;;6.20;99.90;;;;;;2082827;28;19909;-70
2022/01/25 03:27:57;;;;;;;;;;;6.20;99.90;;;;;;2082703;28;20304;-70
2022/01/25 03:28:58;;;;;;;;;;;6.20;99.90;;;;;;2082776;28;19959;-70
2022/01/25 03:29:58;;;;;;;;;;;6.20;99.90;;;;;;2082082;28;19913;-70
2022/01/25 03:30:59;;;;;;;;;;;6.20;99.90;;;;;;2081958;28;19917;-70
2022/01/25 03:31:59;;;;;;;;;;;6.20;99.90;;;;;;2082583;28;20414;-70
2022/01/25 03:33:00;;;;;;;;;;;6.30;99.90;;;;;;2081922;28;19975;-70
2022/01/25 03:34:00;;;;;;;;;;;6.30;99.90;;;;;;2082719;28;19913;-70
2022/01/25 03:35:01;;;;;;;;;;;6.20;99.90;;;;;;2082283;28;20046;-70
2022/01/25 03:36:02;;;;;;;;;;;6.20;99.90;;;;;;2080444;28;19916;-70
2022/01/25 03:37:02;;;;;;;;;;;6.30;99.90;;;;;;2081933;28;19909;-70
2022/01/25 03:38:03;;;;;;;;;;;6.30;99.90;;;;;;2081924;28;19932;-70
2022/01/25 03:39:04;;;;;;;;;;;6.20;99.90;;;;;;2081941;28;20482;-70
2022/01/25 03:40:05;;;;;;;;;;;6.30;99.90;;;;;;2074782;28;19921;-70
2022/01/25 03:41:10;;;;;;;;;;;6.30;99.90;;;;;;2087395;28;19955;-70
2022/01/25 03:42:14;;;;;;;;;;;6.30;99.90;;;;;;2089699;28;19928;-70
2022/01/25 03:43:15;;;;;;;;;;;6.20;99.90;;;;;;2082725;28;19913;-70
2022/01/25 03:44:17;;;;;;;;;;;6.30;99.90;;;;;;2082007;28;20429;-70
2022/01/25 03:45:20;;;;;;;;;;;6.20;99.90;;;;;;2082058;28;19913;-70
2022/01/25 03:46:38;;;;;;;;;;;6.20;99.90;;;;;;2082846;28;20401;-70
2022/01/25 03:50:24;;;;;;;;;;;6.20;99.90;;;;;;2083039;28;19909;-70
2022/01/25 03:51:25;;;;;;;;;;;6.30;99.90;;;;;;2083245;28;19913;-70
2022/01/25 03:52:34;;;;;;;;;;;6.20;99.90;;;;;;2084136;28;19909;-70
2022/01/25 03:53:34;;;;;;;;;;;6.20;99.90;;;;;;2089055;28;19913;-70
2022/01/25 03:54:35;;;;;;;;;;;6.30;99.90;;;;;;2081931;28;20003;-70
2022/01/25 03:55:36;;;;;;;;;;;6.20;99.90;;;;;;2082011;28;19913;-70
2022/01/25 03:56:36;;;;;;;;;;;6.30;99.90;;;;;;2082524;28;19945;-70
2022/01/25 03:57:36;;;;;;;;;;;6.20;99.90;;;;;;2082437;28;19909;-70
2022/01/25 03:58:37;;;;;;;;;;;6.20;99.90;;;;;;2082274;28;19909;-70
2022/01/25 03:59:37;;;;;;;;;;;6.20;99.90;;;;;;2082408;28;20287;-70
2022/01/25 04:00:38;;;;;;;;;;;6.20;99.90;;;;;;2082322;28;20324;-70
2022/01/25 04:01:39;;;;;;;;;;;6.20;99.90;;;;;;2082299;28;21868;-70
2022/01/25 04:02:48;;;;;;;;;;;6.20;99.90;;;;;;2076345;28;19914;-70
2022/01/25 04:04:13;;;;;;;;;;;6.10;99.90;;;;;;2079977;28;19913;-70
2022/01/25 04:05:19;;;;;;;;;;;6.10;99.90;;;;;;2080277;28;19916;-70
2022/01/25 04:06:21;;;;;;;;;;;6.10;99.90;;;;;;2081522;28;19996;-70
2022/01/25 04:07:29;;;;;;;;;;;6.10;99.90;;;;;;2080834;28;19909;-70
2022/01/25 04:08:30;;;;;;;;;;;6.10;99.90;;;;;;2080511;28;20452;-70
2022/01/25 04:09:30;;;;;;;;;;;6.10;99.90;;;;;;2079805;28;20537;-70
2022/01/25 04:10:31;;;;;;;;;;;6.10;99.90;;;;;;2080731;28;19948;-70
2022/01/25 04:11:32;;;;;;;;;;;6.10;99.90;;;;;;2081067;28;19909;-70
2022/01/25 04:12:32;;;;;;;;;;;6.10;99.90;;;;;;2080812;28;20465;-70
2022/01/25 04:13:33;;;;;;;;;;;6.10;99.90;;;;;;2081212;28;20366;-70
2022/01/25 04:14:33;;;;;;;;;;;6.10;99.90;;;;;;2080716;28;19920;-70
2022/01/25 04:15:34;;;;;;;;;;;6.10;99.90;;;;;;2081020;28;19916;-70
2022/01/25 04:16:41;;;;;;;;;;;6.10;99.90;;;;;;2080737;28;19921;-70
2022/01/25 04:17:45;;;;;;;;;;;6.10;99.90;;;;;;2079839;28;19929;-70
2022/01/25 04:18:54;;;;;;;;;;;6.10;99.90;;;;;;2081013;28;20015;-70
2022/01/25 04:20:13;;;;;;;;;;;6.10;99.90;;;;;;2081058;28;20134;-70
2022/01/25 04:21:29;;;;;;;;;;;6.10;99.90;;;;;;2080837;28;19916;-70
2022/01/25 04:25:14;;;;;;;;;;;6.10;99.90;;;;;;2080895;28;19913;-70
2022/01/25 04:26:14;;;;;;;;;;;6.00;99.90;;;;;;2080651;28;19913;-70
2022/01/25 04:27:15;;;;;;;;;;;6.10;99.90;;;;;;2080359;28;19971;-70
2022/01/25 04:28:15;;;;;;;;;;;6.00;99.90;;;;;;2080853;28;19916;-72
2022/01/25 04:29:16;;;;;;;;;;;6.10;99.90;;;;;;2080995;28;19916;-70
2022/01/25 04:30:16;;;;;;;;;;;6.00;99.90;;;;;;2080329;28;19959;-70
2022/01/25 04:31:19;;;;;;;;;;;6.00;99.90;;;;;;2079132;28;19917;-70
2022/01/25 04:32:21;;;;;;;;;;;6.00;99.90;;;;;;2080868;28;19963;-70
2022/01/25 04:33:25;;;;;;;;;;;6.00;99.90;;;;;;2080489;28;20000;-70
2022/01/25 04:35:08;;;;;;;;;;;6.00;99.90;;;;;;2080087;28;19916;-70
2022/01/25 04:36:25;;;;;;;;;;;6.00;99.90;;;;;;2079781;28;19960;-70
2022/01/25 04:49:33;;;;;;;;;;;6.00;99.90;;;;;;2063656;28;19918;-70
2022/01/25 04:53:05;;;;;;;;;;;6.00;99.90;;;;;;2077261;28;19909;-70
2022/01/25 04:55:33;;;;;;;;;;;6.00;99.90;;;;;;2080875;28;19916;-70
2022/01/25 04:56:55;;;;;;;;;;;6.00;99.90;;;;;;2080734;28;19913;-70
2022/01/25 04:58:06;;;;;;;;;;;6.00;99.90;;;;;;2073731;28;20023;-70
2022/01/25 04:59:27;;;;;;;;;;;6.00;99.90;;;;;;2078766;28;19960;-70
2022/01/25 05:00:28;;;;;;;;;;;6.00;99.90;;;;;;2076784;28;19917;-70
2022/01/25 05:01:29;;;;;;;;;;;6.00;99.90;;;;;;2080332;28;19909;-70
2022/01/25 05:04:08;;;;;;;;;;;6.10;99.90;;;;;;2080906;28;19909;-70
2022/01/25 05:05:20;;;;;;;;;;;6.00;99.90;;;;;;2081263;28;20526;-70
2022/01/25 05:06:22;;;;;;;;;;;6.10;99.90;;;;;;2082216;28;19909;-70
2022/01/25 05:09:20;;;;;;;;;;;6.10;99.90;;;;;;2064677;28;19914;-70
2022/01/25 05:10:21;;;;;;;;;;;6.10;99.90;;;;;;2058284;28;20005;-70
2022/01/25 05:11:32;;;;;;;;;;;6.00;99.90;;;;;;2057706;28;19910;-70
2022/01/25 05:12:40;;;;;;;;;;;6.10;99.90;;;;;;2062827;28;20008;-70
2022/01/25 05:13:50;;;;;;;;;;;6.10;99.90;;;;;;2056545;28;19965;-70
2022/01/25 05:15:06;;;;;;;;;;;6.10;99.90;;;;;;2073636;28;19952;-70
2022/01/25 05:16:28;;;;;;;;;;;6.00;99.90;;;;;;2082089;28;19912;-70
2022/01/25 05:17:42;;;;;;;;;;;6.00;99.90;;;;;;2081864;28;19913;-70
2022/01/25 05:18:46;;;;;;;;;;;6.00;99.90;;;;;;2079532;28;20410;-70
2022/01/25 05:22:04;;;;;;;;;;;6.00;99.90;;;;;;2077945;28;19909;-70
2022/01/25 05:22:24;;;;;;;;;;;6.10;99.90;;;;;;2075244;28;20365;-70
2022/01/25 05:23:24;;;;;;;;;;;6.10;99.90;;;;;;2078617;28;19953;-70
2022/01/25 05:24:25;;;;;;;;;;;6.10;99.90;;;;;;2074920;28;20353;-70
2022/01/25 05:25:25;;;;;;;;;;;6.10;99.90;;;;;;2073486;28;19909;-70
2022/01/25 05:26:26;;;;;;;;;;;6.10;99.90;;;;;;2077785;28;20315;-70
2022/01/25 05:27:29;;;;;;;;;;;6.10;99.90;;;;;;2079428;28;19913;-70
2022/01/25 05:28:29;;;;;;;;;;;6.10;99.90;;;;;;2080498;28;20397;-70
2022/01/25 05:29:30;;;;;;;;;;;6.10;99.90;;;;;;2083505;28;20312;-70
2022/01/25 05:30:30;;;;;;;;;;;6.10;99.90;;;;;;2085663;28;19910;-70
2022/01/25 05:31:31;;;;;;;;;;;6.10;99.90;;;;;;2085649;28;19910;-70
2022/01/25 05:32:33;;;;;;;;;;;6.10;99.90;;;;;;2087337;28;19916;-70
2022/01/25 05:33:34;;;;;;;;;;;6.10;99.90;;;;;;2081683;28;19936;-70
2022/01/25 05:34:35;;;;;;;;;;;6.10;99.90;;;;;;2081509;28;19919;-70
2022/01/25 05:35:35;;;;;;;;;;;6.20;99.90;;;;;;2081159;28;19924;-70
2022/01/25 05:36:36;;;;;;;;;;;6.20;99.90;;;;;;2081788;28;19916;-70
2022/01/25 05:37:41;;;;;;;;;;;6.10;99.90;;;;;;2081489;28;19909;-70
2022/01/25 05:38:43;;;;;;;;;;;6.20;99.90;;;;;;2080670;28;19955;-70
2022/01/25 05:39:46;;;;;;;;;;;6.10;99.90;;;;;;2081067;28;19917;-70
2022/01/25 05:40:56;;;;;;;;;;;6.10;99.90;;;;;;2079674;28;19932;-70
2022/01/25 05:44:59;;;;;;;;;;;6.10;99.90;;;;;;2056590;28;19918;-70
2022/01/25 05:47:14;;;;;;;;;;;6.10;99.90;;;;;;2056394;28;19933;-70
2022/01/25 05:48:14;;;;;;;;;;;6.10;99.90;;;;;;2055994;28;19919;-70
2022/01/25 05:49:15;;;;;;;;;;;6.10;99.90;;;;;;2068749;28;19909;-70
2022/01/25 05:50:15;;;;;;;;;;;6.10;99.90;;;;;;2078948;28;19920;-70
2022/01/25 05:51:16;;;;;;;;;;;6.10;99.90;;;;;;2080883;28;19910;-70
2022/01/25 05:52:16;;;;;;;;;;;6.10;99.90;;;;;;2080581;28;19914;-70
2022/01/25 05:53:17;;;;;;;;;;;6.10;99.90;;;;;;2081501;28;20346;-70
2022/01/25 05:54:17;;;;;;;;;;;6.20;99.90;;;;;;2081302;28;19949;-70
2022/01/25 05:55:17;;;;;;;;;;;6.20;99.90;;;;;;2081229;28;19949;-70
2022/01/25 05:56:18;;;;;;;;;;;6.10;99.90;;;;;;2077143;28;19910;-70
2022/01/25 05:57:19;;;;;;;;;;;6.20;99.90;;;;;;2077855;28;19909;-70
2022/01/25 05:58:19;;;;;;;;;;;6.10;99.90;;;;;;2075383;28;19910;-70
2022/01/25 05:59:20;;;;;;;;;;;6.10;99.90;;;;;;2078254;28;19956;-70
2022/01/25 06:00:21;;;;;;;;;;;6.10;99.90;;;;;;2075108;28;19910;-70
2022/01/25 06:01:21;;;;;;;;;;;6.20;99.90;;;;;;2074964;28;19916;-70
2022/01/25 06:02:24;;;;;;;;;;;6.10;99.90;;;;;;2073702;28;19920;-70
2022/01/25 06:03:24;;;;;;;;;;;6.10;99.90;;;;;;2076638;28;20393;-70
2022/01/25 06:04:25;;;;;;;;;;;6.10;99.90;;;;;;2076122;28;20265;-70
2022/01/25 06:05:26;;;;;;;;;;;6.10;99.90;;;;;;2076013;28;20489;-70
2022/01/25 06:06:27;;;;;;;;;;;6.10;99.90;;;;;;2074059;28;20369;-70
2022/01/25 06:07:27;;;;;;;;;;;6.10;99.90;;;;;;2076627;28;19913;-70
2022/01/25 06:08:28;;;;;;;;;;;6.10;99.90;;;;;;2084489;28;19979;-70
2022/01/25 06:09:28;;;;;;;;;;;6.20;99.90;;;;;;2088956;28;19999;-70
2022/01/25 06:10:29;;;;;;;;;;;6.20;99.90;;;;;;2076006;28;19917;-70
2022/01/25 06:11:30;;;;;;;;;;;6.20;99.90;;;;;;2075858;28;19967;-70
2022/01/25 06:12:30;;;;;;;;;;;6.20;99.90;;;;;;2076337;28;19967;-70
2022/01/25 06:13:31;;;;;;;;;;;6.10;99.90;;;;;;2074653;28;19920;-70
2022/01/25 06:14:31;;;;;;;;;;;6.10;99.90;;;;;;2077006;28;19909;-70
2022/01/25 06:15:32;;;;;;;;;;;6.20;99.90;;;;;;2080020;28;19929;-70
2022/01/25 06:16:32;;;;;;;;;;;6.20;99.90;;;;;;2075738;28;19925;-70
2022/01/25 06:17:33;;;;;;;;;;;6.10;99.90;;;;;;2077787;28;21421;-70
2022/01/25 06:18:33;;;;;;;;;;;6.20;99.90;;;;;;2077389;28;19928;-70
2022/01/25 06:19:34;;;;;;;;;;;6.20;99.90;;;;;;2076358;28;20306;-70
2022/01/25 06:20:34;;;;;;;;;;;6.20;99.90;;;;;;2076004;28;19918;-70
2022/01/25 06:21:35;;;;;;;;;;;6.20;99.90;;;;;;2079515;28;20021;-70
2022/01/25 06:22:36;;;;;;;;;;;6.20;99.90;;;;;;2077339;28;20341;-70
2022/01/25 06:23:36;;;;;;;;;;;6.30;99.90;;;;;;2073560;28;19913;-70
2022/01/25 06:24:37;;;;;;;;;;;6.20;99.90;;;;;;2073451;28;19913;-70
2022/01/25 06:25:38;;;;;;;;;;;6.30;99.90;;;;;;2078256;28;19909;-70
2022/01/25 06:26:39;;;;;;;;;;;6.30;99.90;;;;;;2079228;28;19909;-70
2022/01/25 06:27:40;;;;;;;;;;;6.30;99.90;;;;;;2072501;28;19909;-70
2022/01/25 06:28:41;;;;;;;;;;;6.30;99.90;;;;;;2071847;28;19910;-70
2022/01/25 06:29:41;;;;;;;;;;;6.20;99.90;;;;;;2077250;28;19920;-70
2022/01/25 06:30:43;;;;;;;;;;;6.30;99.90;;;;;;2084650;28;19913;-70
2022/01/25 06:31:44;;;;;;;;;;;6.30;99.90;;;;;;2086307;28;20329;-70
2022/01/25 06:32:45;;;;;;;;;;;6.30;99.90;;;;;;2076649;28;19917;-70
2022/01/25 06:33:46;;;;;;;;;;;6.30;99.90;;;;;;2077483;28;19967;-70
2022/01/25 06:34:46;;;;;;;;;;;6.30;99.90;;;;;;2079190;28;20361;-70
2022/01/25 06:35:48;;;;;;;;;;;6.30;99.90;;;;;;2075824;28;20308;-70
2022/01/25 06:36:48;;;;;;;;;;;6.30;99.90;;;;;;2078678;28;20369;-69
2022/01/25 06:37:49;;;;;;;;;;;6.20;99.90;;;;;;2073162;28;20289;-69
2022/01/25 06:38:49;;;;;;;;;;;6.30;99.90;;;;;;2074682;28;19917;-69
2022/01/25 06:39:50;;;;;;;;;;;6.20;99.90;;;;;;2076807;28;20270;-70
2022/01/25 06:40:51;;;;;;;;;;;6.20;99.90;;;;;;2075733;28;19917;-69
2022/01/25 06:41:51;;;;;;;;;;;6.20;99.90;;;;;;2076527;28;19917;-70
2022/01/25 06:42:52;;;;;;;;;;;6.20;99.90;;;;;;2073119;28;19913;-69
2022/01/25 06:43:52;;;;;;;;;;;6.20;99.90;;;;;;2077927;28;19910;-69
2022/01/25 06:44:56;;;;;;;;;;;6.10;99.90;;;;;;2075664;28;19971;-70
2022/01/25 06:46:01;;;;;;;;;;;6.10;99.90;;;;;;2074900;28;19909;-69
2022/01/25 06:47:02;;;;;;;;;;;6.10;99.90;;;;;;2079485;28;19914;-71
2022/01/25 06:48:03;;;;;;;;;;;6.10;99.90;;;;;;2078949;28;19932;-70
2022/01/25 06:49:03;;;;;;;;;;;6.00;99.90;;;;;;2076871;28;19916;-70
2022/01/25 06:50:04;;;;;;;;;;;6.00;99.90;;;;;;2077199;28;19918;-70
2022/01/25 06:51:05;;;;;;;;;;;6.00;99.90;;;;;;2075826;28;20397;-70
2022/01/25 06:52:05;;;;;;;;;;;6.00;99.90;;;;;;2075681;28;19924;-70
2022/01/25 06:53:06;;;;;;;;;;;6.00;99.90;;;;;;2074632;28;19920;-70
2022/01/25 06:54:07;;;;;;;;;;;6.00;99.90;;;;;;2075183;28;19913;-70
2022/01/25 06:55:09;;;;;;;;;;;6.00;99.90;;;;;;2076260;28;19921;-70
2022/01/25 06:56:09;;;;;;;;;;;6.00;99.90;;;;;;2074715;28;19909;-70
2022/01/25 06:57:10;;;;;;;;;;;6.00;99.90;;;;;;2083005;28;19913;-70
2022/01/25 06:58:10;;;;;;;;;;;6.00;99.90;;;;;;2083112;28;20011;-70
2022/01/25 06:59:11;;;;;;;;;;;6.00;99.90;;;;;;2073009;28;19960;-70
2022/01/25 07:00:13;;;;;;;;;;;6.00;99.90;;;;;;2077130;28;19913;-70
2022/01/25 07:01:14;;;;;;;;;;;6.00;99.90;;;;;;2077873;28;20064;-70
2022/01/25 07:02:15;;;;;;;;;;;6.00;99.90;;;;;;2075567;28;19917;-71
2022/01/25 07:03:16;;;;;;;;;;;6.00;99.90;;;;;;2075941;28;19988;-70
2022/01/25 07:04:16;;;;;;;;;;;6.00;99.90;;;;;;2078756;28;19967;-70
2022/01/25 07:05:17;;;;;;;;;;;6.00;99.90;;;;;;2074308;28;19915;-70
2022/01/25 07:06:17;;;;;;;;;;;6.00;99.90;;;;;;2076330;28;19972;-70
2022/01/25 07:07:18;;;;;;;;;;;6.00;99.90;;;;;;2073703;28;20306;-70
2022/01/25 07:08:20;;;;;;;;;;;5.90;99.90;;;;;;2074922;28;20418;-70
2022/01/25 07:09:20;;;;;;;;;;;5.90;99.90;;;;;;2073770;28;19917;-70
2022/01/25 07:10:21;;;;;;;;;;;6.00;99.90;;;;;;2077470;28;19915;-70
2022/01/25 07:11:22;;;;;;;;;;;5.90;99.90;;;;;;2076520;28;19956;-70
2022/01/25 07:12:22;;;;;;;;;;;5.90;99.90;;;;;;2072851;28;20242;-70
2022/01/25 07:13:24;;;;;;;;;;;5.90;99.90;;;;;;2075496;28;19924;-70
2022/01/25 07:14:24;;;;;;;;;;;5.90;99.90;;;;;;2077264;28;20004;-70
2022/01/25 07:15:25;;;;;;;;;;;5.90;99.90;;;;;;2074575;28;19909;-70
2022/01/25 07:16:26;;;;;;;;;;;5.80;99.90;;;;;;2073639;28;19957;-70
2022/01/25 07:17:26;;;;;;;;;;;5.90;99.90;;;;;;2073230;28;19925;-70
2022/01/25 07:18:27;;;;;;;;;;;5.80;99.90;;;;;;2074015;28;20001;-70
2022/01/25 07:19:27;;;;;;;;;;;5.80;99.90;;;;;;2074226;28;19989;-70
2022/01/25 07:20:28;;;;;;;;;;;5.80;99.90;;;;;;2075516;28;19917;-70
2022/01/25 07:21:28;;;;;;;;;;;5.80;99.90;;;;;;2075757;28;19909;-70
2022/01/25 07:22:28;;;;;;;;;;;5.70;99.90;;;;;;2077344;28;19932;-70
2022/01/25 07:23:29;;;;;;;;;;;5.70;99.90;;;;;;2080973;28;20273;-70
2022/01/25 07:24:30;;;;;;;;;;;5.80;99.90;;;;;;2077216;28;19920;-70
2022/01/25 07:25:30;;;;;;;;;;;5.80;99.90;;;;;;2079757;28;19909;-70
2022/01/25 07:26:31;;;;;;;;;;;5.80;99.90;;;;;;2076801;28;19914;-70
2022/01/25 07:27:32;;;;;;;;;;;5.80;99.90;;;;;;2075277;28;19967;-70
2022/01/25 07:28:33;;;;;;;;;;;5.80;99.90;;;;;;2076975;28;20018;-70
2022/01/25 07:29:34;;;;;;;;;;;5.90;99.90;;;;;;2076403;28;19959;-70
2022/01/25 07:30:34;;;;;;;;;;;5.90;99.90;;;;;;2075674;28;19917;-70
2022/01/25 07:31:35;;;;;;;;;;;5.90;99.90;;;;;;2077237;28;19992;-70
2022/01/25 07:32:35;;;;;;;;;;;5.90;99.90;;;;;;2079387;28;19919;-70
2022/01/25 07:33:36;;;;;;;;;;;5.90;99.90;;;;;;2074050;28;20361;-70
2022/01/25 07:34:36;;;;;;;;;;;5.90;99.90;;;;;;2077236;28;19913;-70
2022/01/25 07:35:37;;;;;;;;;;;5.90;99.90;;;;;;2078142;28;20336;-70
2022/01/25 07:36:39;;;;;;;;;;;5.90;99.90;;;;;;2076409;28;19958;-70